CheckWX is a tool to help pilots better visualize weather data.  It is not intended as a substitute for an official pre-flight weather briefing.

10:22:50 UTC

KCLT TAF
Charlotte / Douglas International Airport
Charlotte, North Carolina, USA
KCLT 260733Z 2608/2712 35004KT P6SM BKN250 FM261400 02006KT P6SM BKN250 FM262300 VRB03KT P6SM SCT200

Jun-26@
08:00 UTC

Jun-26 @ 08:00 UTC

Jun-26@
14:00 UTC

Jun-26 @ 14:00 UTC

KCLT 260733Z 2608/2712 35004KT P6SM BKN250
Wind
  • 350° at 4 KTS
Cloud Levels
  • Broken at 25,000' AGL

Jun-26@
14:00 UTC

Jun-26 @ 14:00 UTC

Jun-26@
23:00 UTC

Jun-26 @ 23:00 UTC

FM261400 02006KT P6SM BKN250

From

From Standard forecast or significant change

Wind
  • 020° at 6 KTS
Cloud Levels
  • Broken at 25,000' AGL

Jun-26@
23:00 UTC

Jun-26 @ 23:00 UTC

Jun-27@
12:00 UTC

Jun-27 @ 12:00 UTC

FM262300 VRB03KT P6SM SCT200

From

From Standard forecast or significant change

Wind
  • Variable at 3 KTS
Cloud Levels
  • Scattered at 20,000' AGL